Weerspreuk van de week: Op de laatste oktober (3110), houdt de natuur zich sober.
Het weer levert geen direct gevaar op.    Er zijn geen waarschuwingen afgegeven.

Onweer radar Meer informatie blitzortung!


Regen radar Meer informatie rain snow radar


Bekijk deze sites ook eens:

Awekas

Canon

Het weer actueel

Nieuw horloge

FPL Automotive (TIP)

Paradigit

Autostekkers.nl (TIP)

Over Luyksgestel

Zooplus

De Kempen, mijn omgeving

Douglas

BOL.com

Weerstation Noordbergum

Inktweb

Weerstation Hapert

Weerstation Hoogeloon

Youfone

Weerstation Son&Breugel

Weerstation Castaert

Weerstation Tilburg Reeshof

Weerstation Scheulder

Weerverwachting Samos

Samos actueel

Weerwoord (forum)

Griekenlandforum

Wolven in Nederland



METAR rapporten vliegvelden

   
EBAW - Antwerp
Gewijzigd: 26-10-2021 19:50
Grotendeels bewolkt  
Grotendeels bewolkt  
   Wind: ZZW 20.4 km/h
Wind: ZZW 20.4 km/h
Temperatuur: 13°C
Dauwpunt: 10°C
Vochtigheid: 82%
Barometer: 1022 hPa
Bewolking: Grotendeels bewolkt
Zicht: meer dan 10 km
Bewolking: Grotendeels bewolkt 1200 ft
EBAW 261750Z 20011KT 9999 BKN012 13/10 Q1022 TEMPO BKN009
EBLG - Liège
Gewijzigd: 26-10-2021 19:50
Grotendeels bewolkt  
Grotendeels bewolkt  
   Wind: ZZW 18.5 km/h<br />Gust to 18.5 km/h
Wind: ZZW 18.5 km/h
Gust to 18.5 km/h
Temperatuur: 12°C
Dauwpunt: 9°C
Vochtigheid: 82%
Barometer: 1023 hPa
Bewolking: Grotendeels bewolkt
Zicht: meer dan 10 km
Bewolking: Gedeeltelijk bewolkt 1500 ft,
Grotendeels bewolkt 4700 ft
EBLG 261750Z 21010G21KT 9999 SCT015 BKN047 12/09 Q1023 BECMG BKN012
EBCV - Mons/Bergen
Gewijzigd: 26-10-2021 19:36
Nevel, Bewolking  
Nevel, Bewolking  
   Wind: ZZW 18.5 km/h
Wind: ZZW 18.5 km/h
Temperatuur: 12°C
Dauwpunt: 11°C
Vochtigheid: 94%
Barometer: 1023 hPa
Bewolking: Bewolking
Zicht: 3 km
Bewolking: Bewolking 800 ft
EBCV 261736Z AUTO 21010KT 3100 BR OVC008/// 12/11 Q1023 YLO
EHBK - Maastricht
Gewijzigd: 26-10-2021 19:55
Bewolking  
Bewolking  
   Wind: ZZW 18.5 km/h
Wind: ZZW 18.5 km/h
Temperatuur: 12°C
Dauwpunt: 9°C
Vochtigheid: 82%
Barometer: 1022 hPa
Bewolking: Bewolking
Zicht: meer dan 10 km
Bewolking: Grotendeels bewolkt 2400 ft,
Bewolking 2700 ft
EHBK 261755Z AUTO 21010KT 9999 BKN024 OVC027 12/09 Q1022 NOSIG
ELLX - Luxemburg
Gewijzigd: 26-10-2021 19:50
Grotendeels bewolkt  
Grotendeels bewolkt  
   Wind: ZW 9.3 km/h
Wind: ZW 9.3 km/h
Temperatuur: 10°C
Voelt als: 9°C
Dauwpunt: 8°C
Vochtigheid: 88%
Barometer: 1025 hPa
Bewolking: Grotendeels bewolkt
Zicht: meer dan 10 km
Bewolking: Grotendeels bewolkt 3500 ft
ELLX 261750Z 22005KT 9999 BKN035 10/08 Q1025 NOSIG
EBOS - Oostende
Gewijzigd: 26-10-2021 19:50
Grotendeels bewolkt  
Grotendeels bewolkt  
   Wind: Zuiden 18.5 km/h
Wind: Zuiden 18.5 km/h
Temperatuur: 12°C
Dauwpunt: 11°C
Vochtigheid: 94%
Barometer: 1021 hPa
Bewolking: Grotendeels bewolkt
Zicht: meer dan 10 km
Bewolking: Licht bewolkt 900 ft,
Grotendeels bewolkt 1200 ft
EBOS 261750Z 19010KT 9999 FEW009 BKN012 12/11 Q1021 TEMPO SCT012

Script ontwikkeld door  Saratoga-weather.org Aangepast voor de template door  Weerstation Leuven

U vindt ons ook hier:

Het Weer Aktueel

UK Metoffice

European Weather Network

Weather Underground

AWEKAS